sensor_id;sensor_type;location;lat;lon;timestamp;temperature;humidity
19892;DHT22;10108;50.142;8.724;2023-04-15T00:00:21;8.60;99.90
19892;DHT22;10108;50.142;8.724;2023-04-15T00:02:47;8.60;99.90
19892;DHT22;10108;50.142;8.724;2023-04-15T00:05:13;8.60;99.90
19892;DHT22;10108;50.142;8.724;2023-04-15T00:07:39;8.60;99.90
19892;DHT22;10108;50.142;8.724;2023-04-15T00:10:06;8.60;99.90
19892;DHT22;10108;50.142;8.724;2023-04-15T00:12:32;8.60;99.90
19892;DHT22;10108;50.142;8.724;2023-04-15T00:14:59;8.60;99.90
19892;DHT22;10108;50.142;8.724;2023-04-15T00:17:25;8.60;99.90
19892;DHT22;10108;50.142;8.724;2023-04-15T00:19:51;8.60;99.90
19892;DHT22;10108;50.142;8.724;2023-04-15T00:22:17;8.60;99.90
19892;DHT22;10108;50.142;8.724;2023-04-15T00:24:43;8.60;99.90
19892;DHT22;10108;50.142;8.724;2023-04-15T00:27:10;8.60;99.90
19892;DHT22;10108;50.142;8.724;2023-04-15T00:29:36;8.60;99.90
19892;DHT22;10108;50.142;8.724;2023-04-15T00:32:02;8.60;99.90
19892;DHT22;10108;50.142;8.724;2023-04-15T00:34:28;8.70;99.90
19892;DHT22;10108;50.142;8.724;2023-04-15T00:36:54;8.70;99.90
19892;DHT22;10108;50.142;8.724;2023-04-15T00:39:21;8.70;99.90
19892;DHT22;10108;50.142;8.724;2023-04-15T00:41:48;8.70;99.90
19892;DHT22;10108;50.142;8.724;2023-04-15T00:44:15;8.70;99.90
19892;DHT22;10108;50.142;8.724;2023-04-15T00:46:42;8.70;99.90
19892;DHT22;10108;50.142;8.724;2023-04-15T00:49:10;8.60;99.90
19892;DHT22;10108;50.142;8.724;2023-04-15T00:51:37;8.60;99.90
19892;DHT22;10108;50.142;8.724;2023-04-15T00:54:04;8.50;99.90
19892;DHT22;10108;50.142;8.724;2023-04-15T00:56:35;8.50;99.90
19892;DHT22;10108;50.142;8.724;2023-04-15T00:59:03;8.40;99.90
19892;DHT22;10108;50.142;8.724;2023-04-15T01:01:29;8.40;99.90
19892;DHT22;10108;50.142;8.724;2023-04-15T01:03:56;8.40;99.90
19892;DHT22;10108;50.142;8.724;2023-04-15T01:06:26;8.40;99.90
19892;DHT22;10108;50.142;8.724;2023-04-15T01:08:53;8.40;99.90
19892;DHT22;10108;50.142;8.724;2023-04-15T01:11:20;8.30;99.90
19892;DHT22;10108;50.142;8.724;2023-04-15T01:13:50;8.30;99.90
19892;DHT22;10108;50.142;8.724;2023-04-15T01:16:18;8.30;99.90
19892;DHT22;10108;50.142;8.724;2023-04-15T01:18:44;8.20;99.90
19892;DHT22;10108;50.142;8.724;2023-04-15T01:21:11;8.20;99.90
19892;DHT22;10108;50.142;8.724;2023-04-15T01:23:37;8.30;99.90
19892;DHT22;10108;50.142;8.724;2023-04-15T01:26:06;8.30;99.90
19892;DHT22;10108;50.142;8.724;2023-04-15T01:28:34;8.30;99.90
19892;DHT22;10108;50.142;8.724;2023-04-15T01:31:09;8.30;99.90
19892;DHT22;10108;50.142;8.724;2023-04-15T01:33:39;8.30;99.90
19892;DHT22;10108;50.142;8.724;2023-04-15T01:36:08;8.30;99.90
19892;DHT22;10108;50.142;8.724;2023-04-15T01:38:36;8.30;99.90
19892;DHT22;10108;50.142;8.724;2023-04-15T01:41:02;8.30;99.90
19892;DHT22;10108;50.142;8.724;2023-04-15T01:43:29;8.20;99.90
19892;DHT22;10108;50.142;8.724;2023-04-15T01:45:55;8.20;99.90
19892;DHT22;10108;50.142;8.724;2023-04-15T01:48:22;8.20;99.90
19892;DHT22;10108;50.142;8.724;2023-04-15T01:50:48;8.20;99.90
19892;DHT22;10108;50.142;8.724;2023-04-15T01:53:15;8.20;99.90
19892;DHT22;10108;50.142;8.724;2023-04-15T01:55:41;8.20;99.90
19892;DHT22;10108;50.142;8.724;2023-04-15T01:58:07;8.20;99.90
19892;DHT22;10108;50.142;8.724;2023-04-15T02:00:33;8.30;99.90
19892;DHT22;10108;50.142;8.724;2023-04-15T02:03:00;8.30;99.90
19892;DHT22;10108;50.142;8.724;2023-04-15T02:05:26;8.30;99.90
19892;DHT22;10108;50.142;8.724;2023-04-15T02:07:52;8.30;99.90
19892;DHT22;10108;50.142;8.724;2023-04-15T02:10:19;8.30;99.90
19892;DHT22;10108;50.142;8.724;2023-04-15T02:12:45;8.30;99.90
19892;DHT22;10108;50.142;8.724;2023-04-15T02:15:11;8.30;99.90
19892;DHT22;10108;50.142;8.724;2023-04-15T02:17:37;8.40;99.90
19892;DHT22;10108;50.142;8.724;2023-04-15T02:20:04;8.40;99.90
19892;DHT22;10108;50.142;8.724;2023-04-15T02:22:34;8.40;99.90
19892;DHT22;10108;50.142;8.724;2023-04-15T02:25:00;8.40;99.90
19892;DHT22;10108;50.142;8.724;2023-04-15T02:27:26;8.30;99.90
19892;DHT22;10108;50.142;8.724;2023-04-15T02:29:53;8.30;99.90
19892;DHT22;10108;50.142;8.724;2023-04-15T02:32:19;8.30;99.90
19892;DHT22;10108;50.142;8.724;2023-04-15T02:34:48;8.30;99.90
19892;DHT22;10108;50.142;8.724;2023-04-15T02:37:14;8.30;99.90
19892;DHT22;10108;50.142;8.724;2023-04-15T02:39:41;8.20;99.90
19892;DHT22;10108;50.142;8.724;2023-04-15T02:42:07;8.20;99.90
19892;DHT22;10108;50.142;8.724;2023-04-15T02:44:33;8.20;99.90
19892;DHT22;10108;50.142;8.724;2023-04-15T02:47:02;8.20;99.90
19892;DHT22;10108;50.142;8.724;2023-04-15T02:49:29;8.20;99.90
19892;DHT22;10108;50.142;8.724;2023-04-15T02:51:56;8.20;99.90
19892;DHT22;10108;50.142;8.724;2023-04-15T02:54:23;8.20;99.90
19892;DHT22;10108;50.142;8.724;2023-04-15T02:56:49;8.20;99.90
19892;DHT22;10108;50.142;8.724;2023-04-15T02:59:16;8.20;99.90
19892;DHT22;10108;50.142;8.724;2023-04-15T03:01:42;8.20;99.90
19892;DHT22;10108;50.142;8.724;2023-04-15T03:04:08;8.20;99.90
19892;DHT22;10108;50.142;8.724;2023-04-15T03:06:34;8.10;99.90
19892;DHT22;10108;50.142;8.724;2023-04-15T03:09:00;8.00;99.90
19892;DHT22;10108;50.142;8.724;2023-04-15T03:11:29;7.90;99.90
19892;DHT22;10108;50.142;8.724;2023-04-15T03:13:56;7.80;99.90
19892;DHT22;10108;50.142;8.724;2023-04-15T03:16:28;7.80;99.90
19892;DHT22;10108;50.142;8.724;2023-04-15T03:18:55;7.70;99.90
19892;DHT22;10108;50.142;8.724;2023-04-15T03:21:22;7.60;99.90
19892;DHT22;10108;50.142;8.724;2023-04-15T03:23:48;7.60;99.90
19892;DHT22;10108;50.142;8.724;2023-04-15T03:26:28;7.50;99.90
19892;DHT22;10108;50.142;8.724;2023-04-15T03:28:57;7.50;99.90
19892;DHT22;10108;50.142;8.724;2023-04-15T03:33:50;7.40;99.90
19892;DHT22;10108;50.142;8.724;2023-04-15T03:36:16;7.40;99.90
19892;DHT22;10108;50.142;8.724;2023-04-15T03:38:42;7.40;99.90
19892;DHT22;10108;50.142;8.724;2023-04-15T03:41:09;7.40;99.90
19892;DHT22;10108;50.142;8.724;2023-04-15T03:43:35;7.40;99.90
19892;DHT22;10108;50.142;8.724;2023-04-15T03:46:01;7.40;99.90
19892;DHT22;10108;50.142;8.724;2023-04-15T03:48:27;7.40;99.90
19892;DHT22;10108;50.142;8.724;2023-04-15T03:50:53;7.40;99.90
19892;DHT22;10108;50.142;8.724;2023-04-15T03:53:20;7.40;99.90
19892;DHT22;10108;50.142;8.724;2023-04-15T03:55:46;7.30;99.90
19892;DHT22;10108;50.142;8.724;2023-04-15T03:58:12;7.30;99.90
19892;DHT22;10108;50.142;8.724;2023-04-15T04:00:39;7.30;99.90
19892;DHT22;10108;50.142;8.724;2023-04-15T04:03:06;7.30;99.90
19892;DHT22;10108;50.142;8.724;2023-04-15T04:05:33;7.30;99.90
19892;DHT22;10108;50.142;8.724;2023-04-15T04:08:01;7.30;99.90
19892;DHT22;10108;50.142;8.724;2023-04-15T04:10:28;7.30;99.90
19892;DHT22;10108;50.142;8.724;2023-04-15T04:12:54;7.20;99.90
19892;DHT22;10108;50.142;8.724;2023-04-15T04:15:20;7.20;99.90
19892;DHT22;10108;50.142;8.724;2023-04-15T04:17:46;7.30;99.90
19892;DHT22;10108;50.142;8.724;2023-04-15T04:20:12;7.30;99.90
19892;DHT22;10108;50.142;8.724;2023-04-15T04:22:39;7.40;99.90
19892;DHT22;10108;50.142;8.724;2023-04-15T04:25:06;7.40;99.90
19892;DHT22;10108;50.142;8.724;2023-04-15T04:27:33;7.30;99.90
19892;DHT22;10108;50.142;8.724;2023-04-15T04:30:00;7.30;99.90
19892;DHT22;10108;50.142;8.724;2023-04-15T04:32:26;7.30;99.90
19892;DHT22;10108;50.142;8.724;2023-04-15T04:34:52;7.20;99.90
19892;DHT22;10108;50.142;8.724;2023-04-15T04:37:18;7.20;99.90
19892;DHT22;10108;50.142;8.724;2023-04-15T04:39:45;7.20;99.90
19892;DHT22;10108;50.142;8.724;2023-04-15T04:42:11;7.20;99.90
19892;DHT22;10108;50.142;8.724;2023-04-15T04:44:37;7.20;99.90
19892;DHT22;10108;50.142;8.724;2023-04-15T04:47:03;7.20;99.90
19892;DHT22;10108;50.142;8.724;2023-04-15T04:49:31;7.30;99.90
19892;DHT22;10108;50.142;8.724;2023-04-15T04:51:57;7.30;99.90
19892;DHT22;10108;50.142;8.724;2023-04-15T04:54:24;7.30;99.90
19892;DHT22;10108;50.142;8.724;2023-04-15T04:56:50;7.30;99.90
19892;DHT22;10108;50.142;8.724;2023-04-15T04:59:16;7.30;99.90
19892;DHT22;10108;50.142;8.724;2023-04-15T05:01:42;7.40;99.90
19892;DHT22;10108;50.142;8.724;2023-04-15T05:04:08;7.40;99.90
19892;DHT22;10108;50.142;8.724;2023-04-15T05:06:34;7.50;99.90
19892;DHT22;10108;50.142;8.724;2023-04-15T05:09:02;7.50;99.90
19892;DHT22;10108;50.142;8.724;2023-04-15T05:11:28;7.60;99.90
19892;DHT22;10108;50.142;8.724;2023-04-15T05:13:54;7.70;99.90
19892;DHT22;10108;50.142;8.724;2023-04-15T05:16:20;7.70;99.90
19892;DHT22;10108;50.142;8.724;2023-04-15T05:18:46;7.80;99.90
19892;DHT22;10108;50.142;8.724;2023-04-15T05:21:13;7.80;99.90
19892;DHT22;10108;50.142;8.724;2023-04-15T05:23:39;7.90;99.90
19892;DHT22;10108;50.142;8.724;2023-04-15T05:26:05;7.90;99.90
19892;DHT22;10108;50.142;8.724;2023-04-15T05:28:31;7.80;99.90
19892;DHT22;10108;50.142;8.724;2023-04-15T05:30:58;7.90;99.90
19892;DHT22;10108;50.142;8.724;2023-04-15T05:33:24;7.90;99.90
19892;DHT22;10108;50.142;8.724;2023-04-15T05:35:50;7.90;99.90
19892;DHT22;10108;50.142;8.724;2023-04-15T05:38:16;7.90;99.90
19892;DHT22;10108;50.142;8.724;2023-04-15T05:40:42;7.90;99.90
19892;DHT22;10108;50.142;8.724;2023-04-15T05:43:08;7.90;99.90
19892;DHT22;10108;50.142;8.724;2023-04-15T05:45:34;7.90;99.90
19892;DHT22;10108;50.142;8.724;2023-04-15T05:48:01;8.00;99.90
19892;DHT22;10108;50.142;8.724;2023-04-15T05:50:27;8.00;99.90
19892;DHT22;10108;50.142;8.724;2023-04-15T05:52:53;8.00;99.90
19892;DHT22;10108;50.142;8.724;2023-04-15T05:55:19;8.10;99.90
19892;DHT22;10108;50.142;8.724;2023-04-15T05:57:46;8.10;99.90
19892;DHT22;10108;50.142;8.724;2023-04-15T06:00:12;8.10;99.90
19892;DHT22;10108;50.142;8.724;2023-04-15T06:02:38;8.20;99.90
19892;DHT22;10108;50.142;8.724;2023-04-15T06:05:05;8.20;99.90
19892;DHT22;10108;50.142;8.724;2023-04-15T06:07:36;8.20;99.90
19892;DHT22;10108;50.142;8.724;2023-04-15T06:10:03;8.30;99.90
19892;DHT22;10108;50.142;8.724;2023-04-15T06:12:29;8.30;99.90
19892;DHT22;10108;50.142;8.724;2023-04-15T06:14:56;8.30;99.90
19892;DHT22;10108;50.142;8.724;2023-04-15T06:17:22;8.40;99.90
19892;DHT22;10108;50.142;8.724;2023-04-15T06:19:48;8.40;99.90
19892;DHT22;10108;50.142;8.724;2023-04-15T06:22:16;8.50;99.90
19892;DHT22;10108;50.142;8.724;2023-04-15T06:24:42;8.50;99.90
19892;DHT22;10108;50.142;8.724;2023-04-15T06:27:08;8.50;99.90
19892;DHT22;10108;50.142;8.724;2023-04-15T06:29:37;8.60;99.90
19892;DHT22;10108;50.142;8.724;2023-04-15T06:32:04;8.60;99.90
19892;DHT22;10108;50.142;8.724;2023-04-15T06:34:30;8.70;99.90
19892;DHT22;10108;50.142;8.724;2023-04-15T06:36:56;8.70;99.90
19892;DHT22;10108;50.142;8.724;2023-04-15T06:39:22;8.80;99.90
19892;DHT22;10108;50.142;8.724;2023-04-15T06:41:48;8.90;99.90
19892;DHT22;10108;50.142;8.724;2023-04-15T06:44:15;8.90;99.90
19892;DHT22;10108;50.142;8.724;2023-04-15T06:46:41;9.00;99.90
19892;DHT22;10108;50.142;8.724;2023-04-15T06:49:07;9.00;99.90
19892;DHT22;10108;50.142;8.724;2023-04-15T06:51:34;9.10;99.90
19892;DHT22;10108;50.142;8.724;2023-04-15T06:54:01;9.10;99.90
19892;DHT22;10108;50.142;8.724;2023-04-15T06:56:27;9.10;99.90
19892;DHT22;10108;50.142;8.724;2023-04-15T06:58:53;9.30;99.90
19892;DHT22;10108;50.142;8.724;2023-04-15T07:01:19;9.30;99.90
19892;DHT22;10108;50.142;8.724;2023-04-15T07:03:46;9.30;99.90
19892;DHT22;10108;50.142;8.724;2023-04-15T07:06:12;9.30;99.90
19892;DHT22;10108;50.142;8.724;2023-04-15T07:08:39;9.30;99.90
19892;DHT22;10108;50.142;8.724;2023-04-15T07:11:05;9.30;99.90
19892;DHT22;10108;50.142;8.724;2023-04-15T07:13:32;9.40;99.90
19892;DHT22;10108;50.142;8.724;2023-04-15T07:15:58;9.40;99.90
19892;DHT22;10108;50.142;8.724;2023-04-15T07:18:24;9.40;99.90
19892;DHT22;10108;50.142;8.724;2023-04-15T07:20:50;9.40;99.90
19892;DHT22;10108;50.142;8.724;2023-04-15T07:23:17;9.50;99.90
19892;DHT22;10108;50.142;8.724;2023-04-15T07:25:43;9.50;99.90
19892;DHT22;10108;50.142;8.724;2023-04-15T07:30:36;9.50;99.90
19892;DHT22;10108;50.142;8.724;2023-04-15T07:33:02;9.60;99.90
19892;DHT22;10108;50.142;8.724;2023-04-15T07:35:28;9.60;99.90
19892;DHT22;10108;50.142;8.724;2023-04-15T07:37:54;9.70;99.90
19892;DHT22;10108;50.142;8.724;2023-04-15T07:40:21;9.70;99.90
19892;DHT22;10108;50.142;8.724;2023-04-15T07:42:47;9.70;99.90
19892;DHT22;10108;50.142;8.724;2023-04-15T07:45:14;9.70;99.90
19892;DHT22;10108;50.142;8.724;2023-04-15T07:47:41;9.80;99.90
19892;DHT22;10108;50.142;8.724;2023-04-15T07:50:08;9.80;99.90
19892;DHT22;10108;50.142;8.724;2023-04-15T07:52:36;9.90;99.90
19892;DHT22;10108;50.142;8.724;2023-04-15T07:55:07;9.90;99.90
19892;DHT22;10108;50.142;8.724;2023-04-15T07:57:34;10.00;99.90
19892;DHT22;10108;50.142;8.724;2023-04-15T08:00:01;10.00;99.90
19892;DHT22;10108;50.142;8.724;2023-04-15T08:02:39;10.10;99.90
19892;DHT22;10108;50.142;8.724;2023-04-15T08:05:05;10.10;99.90
19892;DHT22;10108;50.142;8.724;2023-04-15T08:07:32;10.20;99.90
19892;DHT22;10108;50.142;8.724;2023-04-15T08:09:58;10.20;99.90
19892;DHT22;10108;50.142;8.724;2023-04-15T08:12:24;10.20;99.90
19892;DHT22;10108;50.142;8.724;2023-04-15T08:14:50;10.30;99.90
19892;DHT22;10108;50.142;8.724;2023-04-15T08:17:17;10.30;99.90
19892;DHT22;10108;50.142;8.724;2023-04-15T08:19:43;10.40;99.90
19892;DHT22;10108;50.142;8.724;2023-04-15T08:22:09;10.40;99.90
19892;DHT22;10108;50.142;8.724;2023-04-15T08:24:37;10.50;99.90
19892;DHT22;10108;50.142;8.724;2023-04-15T08:27:03;10.50;99.90
19892;DHT22;10108;50.142;8.724;2023-04-15T08:29:33;10.60;99.90
19892;DHT22;10108;50.142;8.724;2023-04-15T08:32:00;10.60;99.90
19892;DHT22;10108;50.142;8.724;2023-04-15T08:34:26;10.70;99.90
19892;DHT22;10108;50.142;8.724;2023-04-15T08:36:53;10.70;99.90
19892;DHT22;10108;50.142;8.724;2023-04-15T08:39:19;10.70;99.90
19892;DHT22;10108;50.142;8.724;2023-04-15T08:41:46;10.80;99.90
19892;DHT22;10108;50.142;8.724;2023-04-15T08:44:13;10.80;99.90
19892;DHT22;10108;50.142;8.724;2023-04-15T08:46:40;10.90;99.90
19892;DHT22;10108;50.142;8.724;2023-04-15T08:49:11;10.90;99.90
19892;DHT22;10108;50.142;8.724;2023-04-15T08:51:41;10.90;99.90
19892;DHT22;10108;50.142;8.724;2023-04-15T08:54:08;10.90;99.90
19892;DHT22;10108;50.142;8.724;2023-04-15T08:56:35;10.90;99.90
19892;DHT22;10108;50.142;8.724;2023-04-15T08:59:02;10.90;99.90
19892;DHT22;10108;50.142;8.724;2023-04-15T09:01:28;11.00;99.90
19892;DHT22;10108;50.142;8.724;2023-04-15T09:03:55;11.10;99.90
19892;DHT22;10108;50.142;8.724;2023-04-15T09:06:23;11.10;99.90
19892;DHT22;10108;50.142;8.724;2023-04-15T09:08:50;11.10;99.90
19892;DHT22;10108;50.142;8.724;2023-04-15T09:11:17;11.20;99.90
19892;DHT22;10108;50.142;8.724;2023-04-15T09:13:44;11.20;99.90
19892;DHT22;10108;50.142;8.724;2023-04-15T09:16:12;11.20;99.90
19892;DHT22;10108;50.142;8.724;2023-04-15T09:18:38;11.30;99.90
19892;DHT22;10108;50.142;8.724;2023-04-15T09:21:06;11.30;99.90
19892;DHT22;10108;50.142;8.724;2023-04-15T09:23:34;11.30;99.90
19892;DHT22;10108;50.142;8.724;2023-04-15T09:26:01;11.30;99.90
19892;DHT22;10108;50.142;8.724;2023-04-15T09:28:28;11.30;99.90
19892;DHT22;10108;50.142;8.724;2023-04-15T09:30:56;11.40;99.90
19892;DHT22;10108;50.142;8.724;2023-04-15T09:33:23;11.40;99.90
19892;DHT22;10108;50.142;8.724;2023-04-15T09:38:26;11.30;99.90
19892;DHT22;10108;50.142;8.724;2023-04-15T09:40:53;11.30;99.90
19892;DHT22;10108;50.142;8.724;2023-04-15T09:43:19;11.30;99.90
19892;DHT22;10108;50.142;8.724;2023-04-15T09:45:48;11.30;99.90
19892;DHT22;10108;50.142;8.724;2023-04-15T09:50:47;11.20;99.90
19892;DHT22;10108;50.142;8.724;2023-04-15T09:53:19;11.20;99.90
19892;DHT22;10108;50.142;8.724;2023-04-15T09:55:56;11.20;99.90
19892;DHT22;10108;50.142;8.724;2023-04-15T09:58:24;11.20;99.90
19892;DHT22;10108;50.142;8.724;2023-04-15T10:00:52;11.20;99.90
19892;DHT22;10108;50.142;8.724;2023-04-15T10:03:20;11.20;99.90
19892;DHT22;10108;50.142;8.724;2023-04-15T10:05:49;11.20;99.90
19892;DHT22;10108;50.142;8.724;2023-04-15T10:08:17;11.20;99.90
19892;DHT22;10108;50.142;8.724;2023-04-15T10:10:45;11.20;99.90
19892;DHT22;10108;50.142;8.724;2023-04-15T10:13:19;11.20;99.90
19892;DHT22;10108;50.142;8.724;2023-04-15T10:15:55;11.20;99.90
19892;DHT22;10108;50.142;8.724;2023-04-15T10:18:25;11.20;99.90
19892;DHT22;10108;50.142;8.724;2023-04-15T10:20:52;11.30;99.90
19892;DHT22;10108;50.142;8.724;2023-04-15T10:23:19;11.30;99.90
19892;DHT22;10108;50.142;8.724;2023-04-15T10:25:47;11.30;99.90
19892;DHT22;10108;50.142;8.724;2023-04-15T10:28:15;11.40;99.90
19892;DHT22;10108;50.142;8.724;2023-04-15T10:30:42;11.40;99.90
19892;DHT22;10108;50.142;8.724;2023-04-15T10:33:09;11.50;99.90
19892;DHT22;10108;50.142;8.724;2023-04-15T10:35:36;11.50;99.90
19892;DHT22;10108;50.142;8.724;2023-04-15T10:38:35;11.60;99.90
19892;DHT22;10108;50.142;8.724;2023-04-15T10:41:13;11.60;99.90
19892;DHT22;10108;50.142;8.724;2023-04-15T10:43:44;11.70;99.90
19892;DHT22;10108;50.142;8.724;2023-04-15T10:46:11;11.80;99.90
19892;DHT22;10108;50.142;8.724;2023-04-15T10:48:37;11.80;99.90
19892;DHT22;10108;50.142;8.724;2023-04-15T10:51:04;11.80;99.90
19892;DHT22;10108;50.142;8.724;2023-04-15T10:53:30;11.70;99.90
19892;DHT22;10108;50.142;8.724;2023-04-15T10:55:58;11.70;99.90
19892;DHT22;10108;50.142;8.724;2023-04-15T10:58:24;11.60;99.90
19892;DHT22;10108;50.142;8.724;2023-04-15T11:00:52;11.60;99.90
19892;DHT22;10108;50.142;8.724;2023-04-15T11:03:39;11.50;99.90
19892;DHT22;10108;50.142;8.724;2023-04-15T11:06:06;11.40;99.90
19892;DHT22;10108;50.142;8.724;2023-04-15T11:08:58;11.20;99.90
19892;DHT22;10108;50.142;8.724;2023-04-15T11:12:08;11.10;99.90
19892;DHT22;10108;50.142;8.724;2023-04-15T11:14:45;11.00;99.90
19892;DHT22;10108;50.142;8.724;2023-04-15T11:17:12;10.90;99.90
19892;DHT22;10108;50.142;8.724;2023-04-15T11:19:38;10.80;99.90
19892;DHT22;10108;50.142;8.724;2023-04-15T11:22:10;10.80;99.90
19892;DHT22;10108;50.142;8.724;2023-04-15T11:24:46;10.80;99.90
19892;DHT22;10108;50.142;8.724;2023-04-15T11:27:22;10.80;99.90
19892;DHT22;10108;50.142;8.724;2023-04-15T11:29:48;10.70;99.90
19892;DHT22;10108;50.142;8.724;2023-04-15T11:32:14;10.60;99.90
19892;DHT22;10108;50.142;8.724;2023-04-15T11:34:41;10.60;99.90
19892;DHT22;10108;50.142;8.724;2023-04-15T11:37:07;10.60;99.90
19892;DHT22;10108;50.142;8.724;2023-04-15T11:39:33;10.50;99.90
19892;DHT22;10108;50.142;8.724;2023-04-15T11:42:02;10.50;99.90
19892;DHT22;10108;50.142;8.724;2023-04-15T11:44:28;10.40;99.90
19892;DHT22;10108;50.142;8.724;2023-04-15T11:46:54;10.20;99.90
19892;DHT22;10108;50.142;8.724;2023-04-15T11:49:28;10.20;99.90
19892;DHT22;10108;50.142;8.724;2023-04-15T11:51:55;10.10;99.90
19892;DHT22;10108;50.142;8.724;2023-04-15T11:54:22;10.10;99.90
19892;DHT22;10108;50.142;8.724;2023-04-15T11:56:51;10.10;99.90
19892;DHT22;10108;50.142;8.724;2023-04-15T11:59:18;10.10;99.90
19892;DHT22;10108;50.142;8.724;2023-04-15T12:01:44;10.10;99.90
19892;DHT22;10108;50.142;8.724;2023-04-15T12:04:14;10.10;99.90
19892;DHT22;10108;50.142;8.724;2023-04-15T12:06:40;10.20;99.90
19892;DHT22;10108;50.142;8.724;2023-04-15T12:09:07;10.20;99.90
19892;DHT22;10108;50.142;8.724;2023-04-15T12:11:37;10.20;99.90
19892;DHT22;10108;50.142;8.724;2023-04-15T12:14:06;10.20;99.90
19892;DHT22;10108;50.142;8.724;2023-04-15T12:16:34;10.20;99.90
19892;DHT22;10108;50.142;8.724;2023-04-15T12:19:04;10.20;99.90
19892;DHT22;10108;50.142;8.724;2023-04-15T12:21:36;10.20;99.90
19892;DHT22;10108;50.142;8.724;2023-04-15T12:24:07;10.20;99.90
19892;DHT22;10108;50.142;8.724;2023-04-15T12:26:45;10.10;99.90
19892;DHT22;10108;50.142;8.724;2023-04-15T12:29:13;10.10;99.90
19892;DHT22;10108;50.142;8.724;2023-04-15T12:31:55;10.20;99.90
19892;DHT22;10108;50.142;8.724;2023-04-15T12:34:26;10.20;99.90
19892;DHT22;10108;50.142;8.724;2023-04-15T12:36:53;10.30;99.90
19892;DHT22;10108;50.142;8.724;2023-04-15T12:39:24;10.30;99.90
19892;DHT22;10108;50.142;8.724;2023-04-15T12:41:51;10.20;99.90
19892;DHT22;10108;50.142;8.724;2023-04-15T12:44:17;10.10;99.90
19892;DHT22;10108;50.142;8.724;2023-04-15T12:46:44;10.10;99.90
19892;DHT22;10108;50.142;8.724;2023-04-15T12:49:11;10.10;99.90
19892;DHT22;10108;50.142;8.724;2023-04-15T12:51:39;10.00;99.90
19892;DHT22;10108;50.142;8.724;2023-04-15T12:54:05;10.00;99.90
19892;DHT22;10108;50.142;8.724;2023-04-15T12:56:32;10.00;99.90
19892;DHT22;10108;50.142;8.724;2023-04-15T12:58:58;10.00;99.90
19892;DHT22;10108;50.142;8.724;2023-04-15T13:01:24;10.00;99.90
19892;DHT22;10108;50.142;8.724;2023-04-15T13:03:50;10.00;99.90
19892;DHT22;10108;50.142;8.724;2023-04-15T13:06:16;10.00;99.90
19892;DHT22;10108;50.142;8.724;2023-04-15T13:08:42;10.00;99.90
19892;DHT22;10108;50.142;8.724;2023-04-15T13:11:08;10.00;99.90
19892;DHT22;10108;50.142;8.724;2023-04-15T13:13:35;10.00;99.90
19892;DHT22;10108;50.142;8.724;2023-04-15T13:16:01;10.00;99.90
19892;DHT22;10108;50.142;8.724;2023-04-15T13:18:27;10.00;99.90
19892;DHT22;10108;50.142;8.724;2023-04-15T13:20:55;10.00;99.90
19892;DHT22;10108;50.142;8.724;2023-04-15T13:23:22;10.00;99.90
19892;DHT22;10108;50.142;8.724;2023-04-15T13:25:48;10.00;99.90
19892;DHT22;10108;50.142;8.724;2023-04-15T13:28:14;10.00;99.90
19892;DHT22;10108;50.142;8.724;2023-04-15T13:30:40;10.00;99.90
19892;DHT22;10108;50.142;8.724;2023-04-15T13:33:06;10.00;99.90
19892;DHT22;10108;50.142;8.724;2023-04-15T13:35:32;9.90;99.90
19892;DHT22;10108;50.142;8.724;2023-04-15T13:37:59;9.80;99.90
19892;DHT22;10108;50.142;8.724;2023-04-15T13:40:25;9.80;99.90
19892;DHT22;10108;50.142;8.724;2023-04-15T13:42:51;9.70;99.90
19892;DHT22;10108;50.142;8.724;2023-04-15T13:45:18;9.70;99.90
19892;DHT22;10108;50.142;8.724;2023-04-15T13:47:44;9.60;99.90
19892;DHT22;10108;50.142;8.724;2023-04-15T13:50:10;9.60;99.90
19892;DHT22;10108;50.142;8.724;2023-04-15T13:52:36;9.60;99.90
19892;DHT22;10108;50.142;8.724;2023-04-15T13:55:03;9.60;99.90
19892;DHT22;10108;50.142;8.724;2023-04-15T13:57:30;9.60;99.90
19892;DHT22;10108;50.142;8.724;2023-04-15T13:59:57;9.60;99.90
19892;DHT22;10108;50.142;8.724;2023-04-15T14:02:23;9.70;99.90
19892;DHT22;10108;50.142;8.724;2023-04-15T14:04:49;9.70;99.90
19892;DHT22;10108;50.142;8.724;2023-04-15T14:07:15;9.70;99.90
19892;DHT22;10108;50.142;8.724;2023-04-15T14:09:42;9.70;99.90
19892;DHT22;10108;50.142;8.724;2023-04-15T14:12:09;9.70;99.90
19892;DHT22;10108;50.142;8.724;2023-04-15T14:14:36;9.70;99.90
19892;DHT22;10108;50.142;8.724;2023-04-15T14:17:02;9.70;99.90
19892;DHT22;10108;50.142;8.724;2023-04-15T14:19:30;9.70;99.90
19892;DHT22;10108;50.142;8.724;2023-04-15T14:21:56;9.70;99.90
19892;DHT22;10108;50.142;8.724;2023-04-15T14:24:22;9.70;99.90
19892;DHT22;10108;50.142;8.724;2023-04-15T14:26:48;9.60;99.90
19892;DHT22;10108;50.142;8.724;2023-04-15T14:29:14;9.60;99.90
19892;DHT22;10108;50.142;8.724;2023-04-15T14:31:41;9.60;99.90
19892;DHT22;10108;50.142;8.724;2023-04-15T14:34:10;9.60;99.90
19892;DHT22;10108;50.142;8.724;2023-04-15T14:36:36;9.60;99.90
19892;DHT22;10108;50.142;8.724;2023-04-15T14:39:02;9.70;99.90
19892;DHT22;10108;50.142;8.724;2023-04-15T14:41:29;9.70;99.90
19892;DHT22;10108;50.142;8.724;2023-04-15T14:43:55;9.70;99.90
19892;DHT22;10108;50.142;8.724;2023-04-15T14:46:21;9.70;99.90
19892;DHT22;10108;50.142;8.724;2023-04-15T14:48:48;9.70;99.90
19892;DHT22;10108;50.142;8.724;2023-04-15T14:51:14;9.70;99.90
19892;DHT22;10108;50.142;8.724;2023-04-15T14:53:41;9.70;99.90
19892;DHT22;10108;50.142;8.724;2023-04-15T14:56:07;9.70;99.90
19892;DHT22;10108;50.142;8.724;2023-04-15T14:58:33;9.70;99.90
19892;DHT22;10108;50.142;8.724;2023-04-15T15:00:59;9.70;99.90
19892;DHT22;10108;50.142;8.724;2023-04-15T15:03:27;9.60;99.90
19892;DHT22;10108;50.142;8.724;2023-04-15T15:05:53;9.60;99.90
19892;DHT22;10108;50.142;8.724;2023-04-15T15:08:19;9.60;99.90
19892;DHT22;10108;50.142;8.724;2023-04-15T15:10:45;9.60;99.90
19892;DHT22;10108;50.142;8.724;2023-04-15T15:13:11;9.60;99.90
19892;DHT22;10108;50.142;8.724;2023-04-15T15:15:38;9.60;99.90
19892;DHT22;10108;50.142;8.724;2023-04-15T15:18:04;9.60;99.90
19892;DHT22;10108;50.142;8.724;2023-04-15T15:20:30;9.60;99.90
19892;DHT22;10108;50.142;8.724;2023-04-15T15:22:57;9.60;99.90
19892;DHT22;10108;50.142;8.724;2023-04-15T15:25:24;9.60;99.90
19892;DHT22;10108;50.142;8.724;2023-04-15T15:27:51;9.60;99.90
19892;DHT22;10108;50.142;8.724;2023-04-15T15:30:17;9.60;99.90
19892;DHT22;10108;50.142;8.724;2023-04-15T15:32:43;9.60;99.90
19892;DHT22;10108;50.142;8.724;2023-04-15T15:35:09;9.60;99.90
19892;DHT22;10108;50.142;8.724;2023-04-15T15:37:36;9.60;99.90
19892;DHT22;10108;50.142;8.724;2023-04-15T15:40:06;9.60;99.90
19892;DHT22;10108;50.142;8.724;2023-04-15T15:42:33;9.60;99.90
19892;DHT22;10108;50.142;8.724;2023-04-15T15:44:59;9.60;99.90
19892;DHT22;10108;50.142;8.724;2023-04-15T15:47:26;9.60;99.90
19892;DHT22;10108;50.142;8.724;2023-04-15T15:49:53;9.60;99.90